Terminal Aerodrome Forecast
Issued by NWS Cleveland, OH

Home | Current Version | Previous Version | Text Only | Print | Product List | Glossary On
Versions: 1 2 3 4 5 6 7 8 9 10 11 12 13 14 15 16 17 18 19 20
000
FTUS41 KCLE 270700 AAA
TAFMFD
TAF AMD
KMFD 270732Z 2708/2806 19009KT P6SM BKN035 OVC250
     FM270900 19009KT P6SM OVC025
     FM271500 19012KT P6SM OVC100
     FM272200 20012KT 4SM -RA OVC015
     FM280000 24012KT 4SM -RA OVC007
     FM280400 27010G15KT P6SM OVC003=

USA.gov is the U.S. government's official web portal to all federal, state and local government web resources and services.